sensor_id;sensor_type;location;lat;lon;timestamp;P1;durP1;ratioP1;P2;durP2;ratioP2
57899;SDS011;60605;53.716;19.940;2022-08-19T00:01:42;16.20;;;10.30;;
57899;SDS011;60605;53.716;19.940;2022-08-19T00:06:55;15.50;;;10.60;;
57899;SDS011;60605;53.716;19.940;2022-08-19T00:11:59;14.50;;;10.70;;
57899;SDS011;60605;53.716;19.940;2022-08-19T00:17:04;15.60;;;9.80;;
57899;SDS011;60605;53.716;19.940;2022-08-19T00:22:09;11.90;;;10.70;;
57899;SDS011;60605;53.716;19.940;2022-08-19T00:27:12;16.80;;;11.20;;
57899;SDS011;60605;53.716;19.940;2022-08-19T00:32:29;12.80;;;10.70;;
57899;SDS011;60605;53.716;19.940;2022-08-19T00:37:32;12.40;;;10.50;;
57899;SDS011;60605;53.716;19.940;2022-08-19T00:42:37;14.30;;;10.80;;
57899;SDS011;60605;53.716;19.940;2022-08-19T00:47:41;13.60;;;10.70;;
57899;SDS011;60605;53.716;19.940;2022-08-19T00:52:45;20.20;;;10.20;;
57899;SDS011;60605;53.716;19.940;2022-08-19T00:57:53;12.20;;;10.00;;
57899;SDS011;60605;53.716;19.940;2022-08-19T01:02:59;12.20;;;10.40;;
57899;SDS011;60605;53.716;19.940;2022-08-19T01:08:03;15.90;;;10.20;;
57899;SDS011;60605;53.716;19.940;2022-08-19T01:13:08;11.90;;;10.70;;
57899;SDS011;60605;53.716;19.940;2022-08-19T01:18:14;12.80;;;10.40;;
57899;SDS011;60605;53.716;19.940;2022-08-19T01:23:19;13.20;;;11.70;;
57899;SDS011;60605;53.716;19.940;2022-08-19T01:28:27;16.90;;;11.80;;
57899;SDS011;60605;53.716;19.940;2022-08-19T01:33:41;13.10;;;11.60;;
57899;SDS011;60605;53.716;19.940;2022-08-19T01:38:45;13.70;;;12.00;;
57899;SDS011;60605;53.716;19.940;2022-08-19T01:43:49;13.50;;;12.00;;
57899;SDS011;60605;53.716;19.940;2022-08-19T01:49:15;16.70;;;12.30;;
57899;SDS011;60605;53.716;19.940;2022-08-19T01:54:20;14.50;;;12.20;;
57899;SDS011;60605;53.716;19.940;2022-08-19T01:59:29;13.50;;;12.20;;
57899;SDS011;60605;53.716;19.940;2022-08-19T02:04:34;14.30;;;11.80;;
57899;SDS011;60605;53.716;19.940;2022-08-19T02:09:37;14.50;;;13.10;;
57899;SDS011;60605;53.716;19.940;2022-08-19T02:14:41;18.80;;;13.20;;
57899;SDS011;60605;53.716;19.940;2022-08-19T02:19:45;13.60;;;12.20;;
57899;SDS011;60605;53.716;19.940;2022-08-19T02:24:48;14.20;;;12.10;;
57899;SDS011;60605;53.716;19.940;2022-08-19T02:29:52;14.50;;;13.00;;
57899;SDS011;60605;53.716;19.940;2022-08-19T02:34:56;16.00;;;12.60;;
57899;SDS011;60605;53.716;19.940;2022-08-19T02:39:59;14.80;;;13.20;;
57899;SDS011;60605;53.716;19.940;2022-08-19T02:45:03;20.30;;;13.00;;
57899;SDS011;60605;53.716;19.940;2022-08-19T02:50:07;17.80;;;13.80;;
57899;SDS011;60605;53.716;19.940;2022-08-19T02:55:11;20.60;;;13.00;;
57899;SDS011;60605;53.716;19.940;2022-08-19T03:00:15;15.00;;;13.50;;
57899;SDS011;60605;53.716;19.940;2022-08-19T03:05:19;14.10;;;12.60;;
57899;SDS011;60605;53.716;19.940;2022-08-19T03:10:44;18.00;;;12.90;;
57899;SDS011;60605;53.716;19.940;2022-08-19T03:15:48;15.90;;;14.30;;
57899;SDS011;60605;53.716;19.940;2022-08-19T03:20:52;15.50;;;13.50;;
57899;SDS011;60605;53.716;19.940;2022-08-19T03:25:57;16.40;;;13.30;;
57899;SDS011;60605;53.716;19.940;2022-08-19T03:31:19;14.00;;;12.60;;
57899;SDS011;60605;53.716;19.940;2022-08-19T03:36:45;13.90;;;12.60;;
57899;SDS011;60605;53.716;19.940;2022-08-19T03:41:51;13.40;;;12.10;;
57899;SDS011;60605;53.716;19.940;2022-08-19T03:47:15;15.80;;;14.10;;
57899;SDS011;60605;53.716;19.940;2022-08-19T03:52:19;27.50;;;23.90;;
57899;SDS011;60605;53.716;19.940;2022-08-19T03:57:22;107.30;;;68.90;;
57899;SDS011;60605;53.716;19.940;2022-08-19T04:02:33;50.40;;;38.70;;
57899;SDS011;60605;53.716;19.940;2022-08-19T04:07:37;29.50;;;21.10;;
57899;SDS011;60605;53.716;19.940;2022-08-19T04:12:41;20.70;;;14.10;;
57899;SDS011;60605;53.716;19.940;2022-08-19T04:17:44;19.90;;;15.40;;
57899;SDS011;60605;53.716;19.940;2022-08-19T04:22:48;18.10;;;11.50;;
57899;SDS011;60605;53.716;19.940;2022-08-19T04:27:51;31.80;;;20.60;;
57899;SDS011;60605;53.716;19.940;2022-08-19T04:32:55;13.40;;;11.70;;
57899;SDS011;60605;53.716;19.940;2022-08-19T04:37:58;13.10;;;10.20;;
57899;SDS011;60605;53.716;19.940;2022-08-19T04:43:02;15.10;;;12.00;;
57899;SDS011;60605;53.716;19.940;2022-08-19T04:48:05;15.50;;;10.70;;
57899;SDS011;60605;53.716;19.940;2022-08-19T04:53:30;13.80;;;9.90;;
57899;SDS011;60605;53.716;19.940;2022-08-19T04:58:40;16.60;;;11.00;;
57899;SDS011;60605;53.716;19.940;2022-08-19T05:03:45;22.00;;;14.30;;
57899;SDS011;60605;53.716;19.940;2022-08-19T05:08:49;13.10;;;8.60;;
57899;SDS011;60605;53.716;19.940;2022-08-19T05:13:52;11.50;;;8.90;;
57899;SDS011;60605;53.716;19.940;2022-08-19T05:18:56;15.40;;;8.80;;
57899;SDS011;60605;53.716;19.940;2022-08-19T05:24:19;12.80;;;8.70;;
57899;SDS011;60605;53.716;19.940;2022-08-19T05:29:24;12.90;;;8.20;;
57899;SDS011;60605;53.716;19.940;2022-08-19T05:34:38;10.10;;;7.90;;
57899;SDS011;60605;53.716;19.940;2022-08-19T05:39:42;12.50;;;7.60;;
57899;SDS011;60605;53.716;19.940;2022-08-19T05:44:51;10.40;;;7.50;;
57899;SDS011;60605;53.716;19.940;2022-08-19T05:49:54;9.60;;;7.50;;
57899;SDS011;60605;53.716;19.940;2022-08-19T05:54:57;11.20;;;7.50;;
57899;SDS011;60605;53.716;19.940;2022-08-19T06:00:01;12.50;;;7.40;;
57899;SDS011;60605;53.716;19.940;2022-08-19T06:05:06;10.40;;;7.60;;
57899;SDS011;60605;53.716;19.940;2022-08-19T06:10:12;22.50;;;7.70;;
57899;SDS011;60605;53.716;19.940;2022-08-19T06:15:17;15.80;;;7.60;;
57899;SDS011;60605;53.716;19.940;2022-08-19T06:20:20;14.60;;;7.80;;
57899;SDS011;60605;53.716;19.940;2022-08-19T06:25:44;16.70;;;7.70;;
57899;SDS011;60605;53.716;19.940;2022-08-19T06:30:48;12.20;;;6.80;;
57899;SDS011;60605;53.716;19.940;2022-08-19T06:35:51;13.20;;;6.40;;
57899;SDS011;60605;53.716;19.940;2022-08-19T06:41:04;13.00;;;6.60;;
57899;SDS011;60605;53.716;19.940;2022-08-19T06:46:10;14.60;;;7.00;;
57899;SDS011;60605;53.716;19.940;2022-08-19T06:51:16;9.80;;;7.30;;
57899;SDS011;60605;53.716;19.940;2022-08-19T06:56:25;10.40;;;6.20;;
57899;SDS011;60605;53.716;19.940;2022-08-19T07:01:38;13.20;;;6.20;;
57899;SDS011;60605;53.716;19.940;2022-08-19T07:06:44;9.60;;;6.00;;
57899;SDS011;60605;53.716;19.940;2022-08-19T07:11:56;8.50;;;5.20;;
57899;SDS011;60605;53.716;19.940;2022-08-19T07:17:01;10.00;;;5.70;;
57899;SDS011;60605;53.716;19.940;2022-08-19T07:22:06;10.30;;;5.50;;
57899;SDS011;60605;53.716;19.940;2022-08-19T07:27:14;11.40;;;5.90;;
57899;SDS011;60605;53.716;19.940;2022-08-19T07:32:18;11.90;;;5.60;;
57899;SDS011;60605;53.716;19.940;2022-08-19T07:37:23;13.50;;;5.20;;
57899;SDS011;60605;53.716;19.940;2022-08-19T07:42:34;8.50;;;4.70;;
57899;SDS011;60605;53.716;19.940;2022-08-19T07:47:38;11.30;;;5.10;;
57899;SDS011;60605;53.716;19.940;2022-08-19T07:52:52;8.10;;;5.30;;
57899;SDS011;60605;53.716;19.940;2022-08-19T07:57:56;8.20;;;5.00;;
57899;SDS011;60605;53.716;19.940;2022-08-19T08:02:59;9.40;;;5.00;;
57899;SDS011;60605;53.716;19.940;2022-08-19T08:08:03;10.00;;;4.80;;
57899;SDS011;60605;53.716;19.940;2022-08-19T08:13:29;11.20;;;4.90;;
57899;SDS011;60605;53.716;19.940;2022-08-19T08:18:33;10.60;;;5.20;;
57899;SDS011;60605;53.716;19.940;2022-08-19T08:23:44;8.30;;;5.00;;
57899;SDS011;60605;53.716;19.940;2022-08-19T08:28:47;12.20;;;5.10;;
57899;SDS011;60605;53.716;19.940;2022-08-19T08:33:51;9.20;;;5.00;;
57899;SDS011;60605;53.716;19.940;2022-08-19T08:38:55;8.30;;;5.10;;
57899;SDS011;60605;53.716;19.940;2022-08-19T08:44:04;7.80;;;4.80;;
57899;SDS011;60605;53.716;19.940;2022-08-19T08:54:15;10.20;;;5.00;;
57899;SDS011;60605;53.716;19.940;2022-08-19T08:59:24;8.50;;;4.60;;
57899;SDS011;60605;53.716;19.940;2022-08-19T09:04:37;9.30;;;4.90;;
57899;SDS011;60605;53.716;19.940;2022-08-19T09:09:43;10.60;;;5.00;;
57899;SDS011;60605;53.716;19.940;2022-08-19T09:15:01;11.10;;;4.50;;
57899;SDS011;60605;53.716;19.940;2022-08-19T09:25:22;6.90;;;4.80;;
57899;SDS011;60605;53.716;19.940;2022-08-19T09:30:32;10.80;;;5.20;;
57899;SDS011;60605;53.716;19.940;2022-08-19T09:35:37;9.00;;;4.40;;
57899;SDS011;60605;53.716;19.940;2022-08-19T09:40:55;9.10;;;4.50;;
57899;SDS011;60605;53.716;19.940;2022-08-19T09:46:00;8.40;;;4.90;;
57899;SDS011;60605;53.716;19.940;2022-08-19T09:51:05;18.50;;;4.80;;
57899;SDS011;60605;53.716;19.940;2022-08-19T10:01:22;10.20;;;4.70;;
57899;SDS011;60605;53.716;19.940;2022-08-19T10:06:28;13.30;;;4.80;;
57899;SDS011;60605;53.716;19.940;2022-08-19T10:11:48;8.00;;;4.30;;
57899;SDS011;60605;53.716;19.940;2022-08-19T10:16:56;7.60;;;4.70;;
57899;SDS011;60605;53.716;19.940;2022-08-19T10:22:04;9.60;;;4.90;;
57899;SDS011;60605;53.716;19.940;2022-08-19T10:27:13;10.20;;;5.00;;
57899;SDS011;60605;53.716;19.940;2022-08-19T10:32:18;10.60;;;5.40;;
57899;SDS011;60605;53.716;19.940;2022-08-19T10:37:36;7.80;;;4.20;;
57899;SDS011;60605;53.716;19.940;2022-08-19T10:42:58;9.00;;;5.40;;
57899;SDS011;60605;53.716;19.940;2022-08-19T10:48:02;13.50;;;5.40;;
57899;SDS011;60605;53.716;19.940;2022-08-19T10:53:06;7.90;;;4.90;;
57899;SDS011;60605;53.716;19.940;2022-08-19T10:58:15;12.30;;;5.70;;
57899;SDS011;60605;53.716;19.940;2022-08-19T11:03:25;12.00;;;4.90;;
57899;SDS011;60605;53.716;19.940;2022-08-19T11:08:32;11.90;;;5.20;;
57899;SDS011;60605;53.716;19.940;2022-08-19T11:13:39;15.00;;;5.00;;
57899;SDS011;60605;53.716;19.940;2022-08-19T11:18:44;14.60;;;5.90;;
57899;SDS011;60605;53.716;19.940;2022-08-19T11:23:52;18.50;;;5.00;;
57899;SDS011;60605;53.716;19.940;2022-08-19T11:28:59;11.30;;;4.90;;
57899;SDS011;60605;53.716;19.940;2022-08-19T11:34:04;10.20;;;4.50;;
57899;SDS011;60605;53.716;19.940;2022-08-19T11:39:10;6.30;;;4.30;;
57899;SDS011;60605;53.716;19.940;2022-08-19T11:44:15;11.30;;;4.90;;
57899;SDS011;60605;53.716;19.940;2022-08-19T11:49:19;13.20;;;4.60;;
57899;SDS011;60605;53.716;19.940;2022-08-19T11:54:24;10.50;;;4.40;;
57899;SDS011;60605;53.716;19.940;2022-08-19T11:59:28;8.80;;;4.50;;
57899;SDS011;60605;53.716;19.940;2022-08-19T12:04:32;7.80;;;4.30;;
57899;SDS011;60605;53.716;19.940;2022-08-19T12:09:35;14.10;;;5.10;;
57899;SDS011;60605;53.716;19.940;2022-08-19T12:14:44;11.20;;;4.20;;
57899;SDS011;60605;53.716;19.940;2022-08-19T12:19:49;9.70;;;4.30;;
57899;SDS011;60605;53.716;19.940;2022-08-19T12:24:52;12.10;;;4.80;;
57899;SDS011;60605;53.716;19.940;2022-08-19T12:29:56;10.70;;;4.70;;
57899;SDS011;60605;53.716;19.940;2022-08-19T12:34:59;5.10;;;4.30;;
57899;SDS011;60605;53.716;19.940;2022-08-19T12:40:04;6.90;;;4.40;;
57899;SDS011;60605;53.716;19.940;2022-08-19T12:45:10;8.50;;;4.90;;
57899;SDS011;60605;53.716;19.940;2022-08-19T12:50:16;9.30;;;4.70;;
57899;SDS011;60605;53.716;19.940;2022-08-19T12:55:19;7.80;;;4.80;;
57899;SDS011;60605;53.716;19.940;2022-08-19T13:00:23;9.50;;;5.00;;
57899;SDS011;60605;53.716;19.940;2022-08-19T13:05:28;13.10;;;5.10;;
57899;SDS011;60605;53.716;19.940;2022-08-19T13:10:35;12.40;;;4.60;;
57899;SDS011;60605;53.716;19.940;2022-08-19T13:15:40;14.50;;;4.70;;
57899;SDS011;60605;53.716;19.940;2022-08-19T13:20:45;8.30;;;4.80;;
57899;SDS011;60605;53.716;19.940;2022-08-19T13:25:55;5.20;;;4.70;;
57899;SDS011;60605;53.716;19.940;2022-08-19T13:31:02;6.40;;;4.10;;
57899;SDS011;60605;53.716;19.940;2022-08-19T13:36:25;12.10;;;5.10;;
57899;SDS011;60605;53.716;19.940;2022-08-19T13:41:29;8.30;;;4.60;;
57899;SDS011;60605;53.716;19.940;2022-08-19T13:46:33;7.60;;;4.10;;
57899;SDS011;60605;53.716;19.940;2022-08-19T13:51:37;12.20;;;4.50;;
57899;SDS011;60605;53.716;19.940;2022-08-19T13:56:45;11.60;;;4.80;;
57899;SDS011;60605;53.716;19.940;2022-08-19T14:01:48;7.50;;;4.30;;
57899;SDS011;60605;53.716;19.940;2022-08-19T14:06:53;10.20;;;4.70;;
57899;SDS011;60605;53.716;19.940;2022-08-19T14:11:56;8.60;;;4.70;;
57899;SDS011;60605;53.716;19.940;2022-08-19T14:17:00;9.10;;;4.60;;
57899;SDS011;60605;53.716;19.940;2022-08-19T14:22:03;7.50;;;4.20;;
57899;SDS011;60605;53.716;19.940;2022-08-19T14:27:08;6.70;;;4.20;;
57899;SDS011;60605;53.716;19.940;2022-08-19T14:32:12;4.90;;;4.10;;
57899;SDS011;60605;53.716;19.940;2022-08-19T14:37:18;4.30;;;3.80;;
57899;SDS011;60605;53.716;19.940;2022-08-19T14:42:22;9.30;;;3.80;;
57899;SDS011;60605;53.716;19.940;2022-08-19T14:47:26;12.40;;;6.70;;
57899;SDS011;60605;53.716;19.940;2022-08-19T14:52:35;11.20;;;4.50;;
57899;SDS011;60605;53.716;19.940;2022-08-19T14:57:40;5.10;;;3.90;;
57899;SDS011;60605;53.716;19.940;2022-08-19T15:02:44;8.80;;;3.70;;
57899;SDS011;60605;53.716;19.940;2022-08-19T15:07:47;10.00;;;3.90;;
57899;SDS011;60605;53.716;19.940;2022-08-19T15:12:51;5.30;;;3.40;;
57899;SDS011;60605;53.716;19.940;2022-08-19T15:17:56;7.80;;;4.20;;
57899;SDS011;60605;53.716;19.940;2022-08-19T15:23:05;9.70;;;3.80;;
57899;SDS011;60605;53.716;19.940;2022-08-19T15:28:09;5.70;;;3.40;;
57899;SDS011;60605;53.716;19.940;2022-08-19T15:33:19;9.50;;;4.60;;
57899;SDS011;60605;53.716;19.940;2022-08-19T15:38:23;7.50;;;3.70;;
57899;SDS011;60605;53.716;19.940;2022-08-19T15:43:28;7.70;;;3.90;;
57899;SDS011;60605;53.716;19.940;2022-08-19T15:48:32;6.20;;;4.20;;
57899;SDS011;60605;53.716;19.940;2022-08-19T15:53:35;9.60;;;4.20;;
57899;SDS011;60605;53.716;19.940;2022-08-19T15:58:38;7.40;;;3.90;;
57899;SDS011;60605;53.716;19.940;2022-08-19T16:04:00;15.70;;;4.40;;
57899;SDS011;60605;53.716;19.940;2022-08-19T16:09:25;9.30;;;4.80;;
57899;SDS011;60605;53.716;19.940;2022-08-19T16:14:31;6.10;;;4.10;;
57899;SDS011;60605;53.716;19.940;2022-08-19T16:19:36;6.90;;;4.20;;
57899;SDS011;60605;53.716;19.940;2022-08-19T16:24:40;7.90;;;4.60;;
57899;SDS011;60605;53.716;19.940;2022-08-19T16:29:44;11.50;;;4.20;;
57899;SDS011;60605;53.716;19.940;2022-08-19T16:34:48;11.20;;;4.70;;
57899;SDS011;60605;53.716;19.940;2022-08-19T16:39:51;10.30;;;4.70;;
57899;SDS011;60605;53.716;19.940;2022-08-19T16:44:56;6.70;;;4.50;;
57899;SDS011;60605;53.716;19.940;2022-08-19T16:49:59;10.50;;;4.50;;
57899;SDS011;60605;53.716;19.940;2022-08-19T16:55:04;7.90;;;4.50;;
57899;SDS011;60605;53.716;19.940;2022-08-19T17:00:08;9.90;;;4.40;;
57899;SDS011;60605;53.716;19.940;2022-08-19T17:05:16;8.60;;;5.10;;
57899;SDS011;60605;53.716;19.940;2022-08-19T17:10:21;6.20;;;4.50;;
57899;SDS011;60605;53.716;19.940;2022-08-19T17:15:25;12.20;;;4.20;;
57899;SDS011;60605;53.716;19.940;2022-08-19T17:20:29;12.90;;;4.40;;
57899;SDS011;60605;53.716;19.940;2022-08-19T17:25:34;11.30;;;4.60;;
57899;SDS011;60605;53.716;19.940;2022-08-19T17:30:40;9.20;;;4.50;;
57899;SDS011;60605;53.716;19.940;2022-08-19T17:35:44;8.50;;;4.30;;
57899;SDS011;60605;53.716;19.940;2022-08-19T17:40:48;8.10;;;3.90;;
57899;SDS011;60605;53.716;19.940;2022-08-19T17:45:53;7.00;;;4.10;;
57899;SDS011;60605;53.716;19.940;2022-08-19T17:50:57;10.80;;;4.70;;
57899;SDS011;60605;53.716;19.940;2022-08-19T17:56:02;10.50;;;4.80;;
57899;SDS011;60605;53.716;19.940;2022-08-19T18:01:09;12.30;;;4.70;;
57899;SDS011;60605;53.716;19.940;2022-08-19T18:06:14;8.70;;;4.70;;
57899;SDS011;60605;53.716;19.940;2022-08-19T18:11:19;6.70;;;4.70;;
57899;SDS011;60605;53.716;19.940;2022-08-19T18:16:23;10.40;;;4.80;;
57899;SDS011;60605;53.716;19.940;2022-08-19T18:21:28;9.10;;;4.40;;
57899;SDS011;60605;53.716;19.940;2022-08-19T18:26:33;7.70;;;4.50;;
57899;SDS011;60605;53.716;19.940;2022-08-19T18:31:37;14.10;;;4.80;;
57899;SDS011;60605;53.716;19.940;2022-08-19T18:36:41;13.70;;;5.20;;
57899;SDS011;60605;53.716;19.940;2022-08-19T18:41:55;9.30;;;4.70;;
57899;SDS011;60605;53.716;19.940;2022-08-19T18:47:18;8.60;;;4.20;;
57899;SDS011;60605;53.716;19.940;2022-08-19T18:52:42;10.80;;;4.90;;
57899;SDS011;60605;53.716;19.940;2022-08-19T18:57:45;12.50;;;4.80;;
57899;SDS011;60605;53.716;19.940;2022-08-19T19:02:53;7.30;;;5.00;;
57899;SDS011;60605;53.716;19.940;2022-08-19T19:07:57;7.40;;;4.60;;
57899;SDS011;60605;53.716;19.940;2022-08-19T19:13:02;10.80;;;4.50;;
57899;SDS011;60605;53.716;19.940;2022-08-19T19:18:06;9.60;;;4.80;;
57899;SDS011;60605;53.716;19.940;2022-08-19T19:23:10;10.50;;;4.80;;
57899;SDS011;60605;53.716;19.940;2022-08-19T19:28:14;9.30;;;4.60;;
57899;SDS011;60605;53.716;19.940;2022-08-19T19:33:18;8.30;;;4.90;;
57899;SDS011;60605;53.716;19.940;2022-08-19T19:38:22;9.10;;;4.60;;
57899;SDS011;60605;53.716;19.940;2022-08-19T19:43:28;6.20;;;4.50;;
57899;SDS011;60605;53.716;19.940;2022-08-19T19:48:44;11.10;;;5.00;;
57899;SDS011;60605;53.716;19.940;2022-08-19T19:53:48;11.20;;;4.70;;
57899;SDS011;60605;53.716;19.940;2022-08-19T19:58:53;6.50;;;4.40;;
57899;SDS011;60605;53.716;19.940;2022-08-19T20:03:56;6.40;;;4.40;;
57899;SDS011;60605;53.716;19.940;2022-08-19T20:09:03;11.20;;;5.20;;
57899;SDS011;60605;53.716;19.940;2022-08-19T20:14:13;11.60;;;4.80;;
57899;SDS011;60605;53.716;19.940;2022-08-19T20:19:20;25.50;;;12.70;;
57899;SDS011;60605;53.716;19.940;2022-08-19T20:24:31;11.90;;;6.30;;
57899;SDS011;60605;53.716;19.940;2022-08-19T20:29:38;9.70;;;4.10;;
57899;SDS011;60605;53.716;19.940;2022-08-19T20:34:45;14.80;;;4.30;;
57899;SDS011;60605;53.716;19.940;2022-08-19T20:39:50;10.20;;;4.40;;
57899;SDS011;60605;53.716;19.940;2022-08-19T20:44:54;7.30;;;4.10;;
57899;SDS011;60605;53.716;19.940;2022-08-19T20:49:58;13.10;;;4.40;;
57899;SDS011;60605;53.716;19.940;2022-08-19T20:55:03;6.40;;;4.30;;
57899;SDS011;60605;53.716;19.940;2022-08-19T21:00:08;8.20;;;4.20;;
57899;SDS011;60605;53.716;19.940;2022-08-19T21:05:15;6.00;;;4.20;;
57899;SDS011;60605;53.716;19.940;2022-08-19T21:10:19;8.90;;;3.60;;
57899;SDS011;60605;53.716;19.940;2022-08-19T21:15:23;8.50;;;3.50;;
57899;SDS011;60605;53.716;19.940;2022-08-19T21:20:27;8.30;;;3.80;;
57899;SDS011;60605;53.716;19.940;2022-08-19T21:25:31;8.80;;;3.60;;
57899;SDS011;60605;53.716;19.940;2022-08-19T21:30:35;9.10;;;3.40;;
57899;SDS011;60605;53.716;19.940;2022-08-19T21:35:38;7.70;;;3.80;;
57899;SDS011;60605;53.716;19.940;2022-08-19T21:40:42;7.70;;;3.70;;
57899;SDS011;60605;53.716;19.940;2022-08-19T21:45:46;10.80;;;4.00;;
57899;SDS011;60605;53.716;19.940;2022-08-19T21:50:50;6.50;;;3.60;;
57899;SDS011;60605;53.716;19.940;2022-08-19T21:55:53;12.20;;;3.50;;
57899;SDS011;60605;53.716;19.940;2022-08-19T22:00:59;8.50;;;3.70;;
57899;SDS011;60605;53.716;19.940;2022-08-19T22:06:08;8.40;;;3.50;;
57899;SDS011;60605;53.716;19.940;2022-08-19T22:11:12;8.20;;;3.60;;
57899;SDS011;60605;53.716;19.940;2022-08-19T22:16:15;6.80;;;3.90;;
57899;SDS011;60605;53.716;19.940;2022-08-19T22:21:20;10.40;;;3.80;;
57899;SDS011;60605;53.716;19.940;2022-08-19T22:26:42;8.10;;;3.60;;
57899;SDS011;60605;53.716;19.940;2022-08-19T22:31:46;7.10;;;3.50;;
57899;SDS011;60605;53.716;19.940;2022-08-19T22:36:56;10.10;;;3.20;;
57899;SDS011;60605;53.716;19.940;2022-08-19T22:41:59;9.70;;;3.50;;
57899;SDS011;60605;53.716;19.940;2022-08-19T22:47:03;6.20;;;3.60;;
57899;SDS011;60605;53.716;19.940;2022-08-19T22:52:07;9.90;;;3.50;;
57899;SDS011;60605;53.716;19.940;2022-08-19T23:02:24;7.60;;;3.60;;
57899;SDS011;60605;53.716;19.940;2022-08-19T23:07:33;8.70;;;4.10;;
57899;SDS011;60605;53.716;19.940;2022-08-19T23:12:38;6.80;;;3.50;;
57899;SDS011;60605;53.716;19.940;2022-08-19T23:17:46;7.70;;;4.00;;
57899;SDS011;60605;53.716;19.940;2022-08-19T23:22:49;11.60;;;3.70;;
57899;SDS011;60605;53.716;19.940;2022-08-19T23:27:53;9.30;;;3.60;;
57899;SDS011;60605;53.716;19.940;2022-08-19T23:33:20;9.70;;;4.50;;
57899;SDS011;60605;53.716;19.940;2022-08-19T23:38:28;5.80;;;4.20;;
57899;SDS011;60605;53.716;19.940;2022-08-19T23:43:34;10.60;;;4.80;;
57899;SDS011;60605;53.716;19.940;2022-08-19T23:48:40;11.50;;;4.70;;
57899;SDS011;60605;53.716;19.940;2022-08-19T23:53:44;9.60;;;4.60;;
57899;SDS011;60605;53.716;19.940;2022-08-19T23:58:48;15.80;;;6.00;;
